sensor_id;sensor_type;location;lat;lon;timestamp;P1;durP1;ratioP1;P2;durP2;ratioP2
66761;SDS011;53672;48.176;16.338;2024-03-06T00:01:38;32.80;;;13.47;;
66761;SDS011;53672;48.176;16.338;2024-03-06T00:06:41;34.47;;;14.07;;
66761;SDS011;53672;48.176;16.338;2024-03-06T00:11:42;32.23;;;13.23;;
66761;SDS011;53672;48.176;16.338;2024-03-06T00:16:44;32.20;;;13.45;;
66761;SDS011;53672;48.176;16.338;2024-03-06T00:21:47;34.50;;;14.23;;
66761;SDS011;53672;48.176;16.338;2024-03-06T00:26:49;36.73;;;14.33;;
66761;SDS011;53672;48.176;16.338;2024-03-06T00:31:50;36.53;;;14.30;;
66761;SDS011;53672;48.176;16.338;2024-03-06T00:36:53;38.13;;;15.27;;
66761;SDS011;53672;48.176;16.338;2024-03-06T00:41:55;35.70;;;15.02;;
66761;SDS011;53672;48.176;16.338;2024-03-06T00:46:57;38.40;;;16.05;;
66761;SDS011;53672;48.176;16.338;2024-03-06T00:52:00;37.50;;;15.17;;
66761;SDS011;53672;48.176;16.338;2024-03-06T00:57:01;35.85;;;14.70;;
66761;SDS011;53672;48.176;16.338;2024-03-06T01:02:03;38.77;;;14.87;;
66761;SDS011;53672;48.176;16.338;2024-03-06T01:07:07;37.53;;;15.13;;
66761;SDS011;53672;48.176;16.338;2024-03-06T01:12:09;41.63;;;15.95;;
66761;SDS011;53672;48.176;16.338;2024-03-06T01:17:11;43.53;;;17.17;;
66761;SDS011;53672;48.176;16.338;2024-03-06T01:22:14;46.22;;;18.90;;
66761;SDS011;53672;48.176;16.338;2024-03-06T01:27:16;41.97;;;16.83;;
66761;SDS011;53672;48.176;16.338;2024-03-06T01:32:18;46.83;;;18.33;;
66761;SDS011;53672;48.176;16.338;2024-03-06T01:37:21;52.17;;;19.63;;
66761;SDS011;53672;48.176;16.338;2024-03-06T01:42:22;54.97;;;18.67;;
66761;SDS011;53672;48.176;16.338;2024-03-06T01:47:24;54.92;;;18.58;;
66761;SDS011;53672;48.176;16.338;2024-03-06T01:52:27;47.17;;;17.73;;
66761;SDS011;53672;48.176;16.338;2024-03-06T01:57:29;51.45;;;17.98;;
66761;SDS011;53672;48.176;16.338;2024-03-06T02:02:30;53.78;;;17.98;;
66761;SDS011;53672;48.176;16.338;2024-03-06T02:07:33;47.90;;;18.73;;
66761;SDS011;53672;48.176;16.338;2024-03-06T02:12:37;46.03;;;18.00;;
66761;SDS011;53672;48.176;16.338;2024-03-06T02:17:40;49.47;;;18.77;;
66761;SDS011;53672;48.176;16.338;2024-03-06T02:22:43;52.30;;;18.67;;
66761;SDS011;53672;48.176;16.338;2024-03-06T02:27:45;59.42;;;19.67;;
66761;SDS011;53672;48.176;16.338;2024-03-06T02:32:48;52.73;;;19.33;;
66761;SDS011;53672;48.176;16.338;2024-03-06T02:37:51;55.63;;;20.10;;
66761;SDS011;53672;48.176;16.338;2024-03-06T02:42:52;47.93;;;19.27;;
66761;SDS011;53672;48.176;16.338;2024-03-06T02:47:54;52.90;;;19.38;;
66761;SDS011;53672;48.176;16.338;2024-03-06T02:52:57;55.95;;;19.10;;
66761;SDS011;53672;48.176;16.338;2024-03-06T02:58:00;51.77;;;18.00;;
66761;SDS011;53672;48.176;16.338;2024-03-06T03:03:02;50.30;;;18.55;;
66761;SDS011;53672;48.176;16.338;2024-03-06T03:08:06;50.07;;;19.93;;
66761;SDS011;53672;48.176;16.338;2024-03-06T03:13:08;55.35;;;19.58;;
66761;SDS011;53672;48.176;16.338;2024-03-06T03:18:09;55.25;;;19.52;;
66761;SDS011;53672;48.176;16.338;2024-03-06T03:23:12;54.93;;;19.80;;
66761;SDS011;53672;48.176;16.338;2024-03-06T03:28:15;62.40;;;20.23;;
66761;SDS011;53672;48.176;16.338;2024-03-06T03:33:17;56.97;;;21.23;;
66761;SDS011;53672;48.176;16.338;2024-03-06T03:38:19;58.58;;;20.98;;
66761;SDS011;53672;48.176;16.338;2024-03-06T03:43:21;61.72;;;20.90;;
66761;SDS011;53672;48.176;16.338;2024-03-06T03:48:23;61.13;;;20.90;;
66761;SDS011;53672;48.176;16.338;2024-03-06T03:53:26;62.72;;;20.45;;
66761;SDS011;53672;48.176;16.338;2024-03-06T03:58:28;56.87;;;20.80;;
66761;SDS011;53672;48.176;16.338;2024-03-06T04:03:29;61.00;;;21.27;;
66761;SDS011;53672;48.176;16.338;2024-03-06T04:08:32;57.90;;;20.48;;
66761;SDS011;53672;48.176;16.338;2024-03-06T04:13:35;54.13;;;18.73;;
66761;SDS011;53672;48.176;16.338;2024-03-06T04:18:37;64.25;;;21.48;;
66761;SDS011;53672;48.176;16.338;2024-03-06T04:23:40;57.17;;;19.97;;
66761;SDS011;53672;48.176;16.338;2024-03-06T04:28:42;58.17;;;20.38;;
66761;SDS011;53672;48.176;16.338;2024-03-06T04:33:43;61.13;;;20.20;;
66761;SDS011;53672;48.176;16.338;2024-03-06T04:38:46;57.50;;;18.33;;
66761;SDS011;53672;48.176;16.338;2024-03-06T04:43:48;61.08;;;20.23;;
66761;SDS011;53672;48.176;16.338;2024-03-06T04:48:53;64.40;;;20.17;;
66761;SDS011;53672;48.176;16.338;2024-03-06T04:53:56;59.08;;;19.88;;
66761;SDS011;53672;48.176;16.338;2024-03-06T04:58:57;56.70;;;19.60;;
66761;SDS011;53672;48.176;16.338;2024-03-06T05:04:03;56.93;;;20.47;;
66761;SDS011;53672;48.176;16.338;2024-03-06T05:09:06;64.22;;;20.42;;
66761;SDS011;53672;48.176;16.338;2024-03-06T05:14:11;55.43;;;18.47;;
66761;SDS011;53672;48.176;16.338;2024-03-06T05:19:13;53.50;;;19.05;;
66761;SDS011;53672;48.176;16.338;2024-03-06T05:24:16;48.45;;;17.83;;
66761;SDS011;53672;48.176;16.338;2024-03-06T05:29:17;51.27;;;17.80;;
66761;SDS011;53672;48.176;16.338;2024-03-06T05:34:19;48.35;;;17.65;;
66761;SDS011;53672;48.176;16.338;2024-03-06T05:39:22;53.40;;;17.30;;
66761;SDS011;53672;48.176;16.338;2024-03-06T05:44:23;48.55;;;16.70;;
66761;SDS011;53672;48.176;16.338;2024-03-06T05:49:25;48.00;;;16.75;;
66761;SDS011;53672;48.176;16.338;2024-03-06T05:54:28;46.37;;;16.40;;
66761;SDS011;53672;48.176;16.338;2024-03-06T05:59:33;43.78;;;15.38;;
66761;SDS011;53672;48.176;16.338;2024-03-06T06:04:35;41.20;;;16.37;;
66761;SDS011;53672;48.176;16.338;2024-03-06T06:09:38;43.78;;;15.80;;
66761;SDS011;53672;48.176;16.338;2024-03-06T06:14:40;46.22;;;15.93;;
66761;SDS011;53672;48.176;16.338;2024-03-06T06:19:42;43.37;;;15.90;;
66761;SDS011;53672;48.176;16.338;2024-03-06T06:24:45;42.97;;;15.57;;
66761;SDS011;53672;48.176;16.338;2024-03-06T06:29:48;42.17;;;15.67;;
66761;SDS011;53672;48.176;16.338;2024-03-06T06:34:50;36.17;;;14.00;;
66761;SDS011;53672;48.176;16.338;2024-03-06T06:39:53;32.67;;;12.57;;
66761;SDS011;53672;48.176;16.338;2024-03-06T06:44:54;32.37;;;12.70;;
66761;SDS011;53672;48.176;16.338;2024-03-06T06:49:56;30.48;;;12.73;;
66761;SDS011;53672;48.176;16.338;2024-03-06T06:54:59;28.03;;;11.07;;
66761;SDS011;53672;48.176;16.338;2024-03-06T07:00:01;28.63;;;11.98;;
66761;SDS011;53672;48.176;16.338;2024-03-06T07:05:11;29.83;;;12.75;;
66761;SDS011;53672;48.176;16.338;2024-03-06T07:10:14;28.27;;;12.03;;
66761;SDS011;53672;48.176;16.338;2024-03-06T07:15:16;29.63;;;12.52;;
66761;SDS011;53672;48.176;16.338;2024-03-06T07:20:18;27.90;;;12.77;;
66761;SDS011;53672;48.176;16.338;2024-03-06T07:25:21;31.25;;;12.52;;
66761;SDS011;53672;48.176;16.338;2024-03-06T07:30:22;27.02;;;12.70;;
66761;SDS011;53672;48.176;16.338;2024-03-06T07:35:24;27.47;;;12.00;;
66761;SDS011;53672;48.176;16.338;2024-03-06T07:40:27;27.75;;;12.50;;
66761;SDS011;53672;48.176;16.338;2024-03-06T07:45:28;27.63;;;11.37;;
66761;SDS011;53672;48.176;16.338;2024-03-06T07:50:30;25.70;;;11.75;;
66761;SDS011;53672;48.176;16.338;2024-03-06T07:55:33;24.40;;;11.95;;
66761;SDS011;53672;48.176;16.338;2024-03-06T08:00:35;24.53;;;11.63;;
66761;SDS011;53672;48.176;16.338;2024-03-06T08:05:37;27.33;;;12.50;;
66761;SDS011;53672;48.176;16.338;2024-03-06T08:10:40;29.07;;;11.70;;
66761;SDS011;53672;48.176;16.338;2024-03-06T08:15:41;25.90;;;11.65;;
66761;SDS011;53672;48.176;16.338;2024-03-06T08:20:44;24.08;;;11.65;;
66761;SDS011;53672;48.176;16.338;2024-03-06T08:25:47;23.70;;;11.20;;
66761;SDS011;53672;48.176;16.338;2024-03-06T08:30:49;25.50;;;11.23;;
66761;SDS011;53672;48.176;16.338;2024-03-06T08:35:52;25.13;;;11.43;;
66761;SDS011;53672;48.176;16.338;2024-03-06T08:40:55;20.52;;;10.38;;
66761;SDS011;53672;48.176;16.338;2024-03-06T08:45:56;23.02;;;11.02;;
66761;SDS011;53672;48.176;16.338;2024-03-06T08:50:58;22.30;;;10.90;;
66761;SDS011;53672;48.176;16.338;2024-03-06T08:56:01;21.90;;;11.00;;
66761;SDS011;53672;48.176;16.338;2024-03-06T09:01:03;20.10;;;10.93;;
66761;SDS011;53672;48.176;16.338;2024-03-06T09:06:05;21.70;;;12.27;;
66761;SDS011;53672;48.176;16.338;2024-03-06T09:11:09;21.40;;;12.60;;
66761;SDS011;53672;48.176;16.338;2024-03-06T09:16:10;19.30;;;12.37;;
66761;SDS011;53672;48.176;16.338;2024-03-06T09:21:12;25.50;;;13.85;;
66761;SDS011;53672;48.176;16.338;2024-03-06T09:26:15;19.67;;;13.73;;
66761;SDS011;53672;48.176;16.338;2024-03-06T09:31:17;20.23;;;14.32;;
66761;SDS011;53672;48.176;16.338;2024-03-06T09:36:18;18.83;;;13.73;;
66761;SDS011;53672;48.176;16.338;2024-03-06T09:41:21;16.83;;;13.17;;
66761;SDS011;53672;48.176;16.338;2024-03-06T09:46:23;17.23;;;13.32;;
66761;SDS011;53672;48.176;16.338;2024-03-06T09:51:24;18.00;;;13.70;;
66761;SDS011;53672;48.176;16.338;2024-03-06T09:56:28;17.38;;;12.90;;
66761;SDS011;53672;48.176;16.338;2024-03-06T10:01:31;17.95;;;13.45;;
66761;SDS011;53672;48.176;16.338;2024-03-06T10:06:33;17.33;;;13.07;;
66761;SDS011;53672;48.176;16.338;2024-03-06T10:11:39;16.98;;;12.35;;
66761;SDS011;53672;48.176;16.338;2024-03-06T10:16:55;16.53;;;13.53;;
66761;SDS011;53672;48.176;16.338;2024-03-06T10:21:58;16.10;;;13.23;;
66761;SDS011;53672;48.176;16.338;2024-03-06T10:27:01;18.85;;;15.10;;
66761;SDS011;53672;48.176;16.338;2024-03-06T10:32:03;17.03;;;14.50;;
66761;SDS011;53672;48.176;16.338;2024-03-06T10:37:05;16.95;;;14.15;;
66761;SDS011;53672;48.176;16.338;2024-03-06T10:42:08;14.93;;;13.23;;
66761;SDS011;53672;48.176;16.338;2024-03-06T10:47:14;14.55;;;12.75;;
66761;SDS011;53672;48.176;16.338;2024-03-06T10:52:16;13.80;;;11.82;;
66761;SDS011;53672;48.176;16.338;2024-03-06T10:57:21;13.77;;;11.77;;
66761;SDS011;53672;48.176;16.338;2024-03-06T11:02:23;15.70;;;11.95;;
66761;SDS011;53672;48.176;16.338;2024-03-06T11:07:25;15.57;;;11.87;;
66761;SDS011;53672;48.176;16.338;2024-03-06T11:12:33;14.77;;;11.20;;
66761;SDS011;53672;48.176;16.338;2024-03-06T11:17:37;16.02;;;12.45;;
66761;SDS011;53672;48.176;16.338;2024-03-06T11:28:15;15.57;;;12.23;;
66761;SDS011;53672;48.176;16.338;2024-03-06T11:33:18;15.87;;;12.20;;
66761;SDS011;53672;48.176;16.338;2024-03-06T11:38:20;16.02;;;12.48;;
66761;SDS011;53672;48.176;16.338;2024-03-06T11:43:24;16.95;;;12.25;;
66761;SDS011;53672;48.176;16.338;2024-03-06T11:48:27;16.23;;;12.33;;
66761;SDS011;53672;48.176;16.338;2024-03-06T11:53:28;16.45;;;12.73;;
66761;SDS011;53672;48.176;16.338;2024-03-06T11:58:32;15.97;;;11.93;;
66761;SDS011;53672;48.176;16.338;2024-03-06T12:03:34;17.15;;;12.60;;
66761;SDS011;53672;48.176;16.338;2024-03-06T12:08:36;18.83;;;12.07;;
66761;SDS011;53672;48.176;16.338;2024-03-06T12:13:41;19.30;;;12.40;;
66761;SDS011;53672;48.176;16.338;2024-03-06T12:18:42;20.55;;;12.57;;
66761;SDS011;53672;48.176;16.338;2024-03-06T12:23:44;22.70;;;11.80;;
66761;SDS011;53672;48.176;16.338;2024-03-06T12:28:47;19.67;;;10.90;;
66761;SDS011;53672;48.176;16.338;2024-03-06T12:33:56;20.33;;;11.20;;
66761;SDS011;53672;48.176;16.338;2024-03-06T12:38:58;22.87;;;11.17;;
66761;SDS011;53672;48.176;16.338;2024-03-06T12:44:02;21.95;;;11.48;;
66761;SDS011;53672;48.176;16.338;2024-03-06T12:49:04;21.03;;;11.67;;
66761;SDS011;53672;48.176;16.338;2024-03-06T12:54:06;21.52;;;11.10;;
66761;SDS011;53672;48.176;16.338;2024-03-06T12:59:10;21.20;;;10.60;;
66761;SDS011;53672;48.176;16.338;2024-03-06T13:04:12;22.43;;;11.03;;
66761;SDS011;53672;48.176;16.338;2024-03-06T13:09:13;21.70;;;11.10;;
66761;SDS011;53672;48.176;16.338;2024-03-06T13:14:17;21.93;;;11.43;;
66761;SDS011;53672;48.176;16.338;2024-03-06T13:19:18;22.15;;;10.88;;
66761;SDS011;53672;48.176;16.338;2024-03-06T13:24:20;22.42;;;11.80;;
66761;SDS011;53672;48.176;16.338;2024-03-06T13:29:23;21.50;;;10.70;;
66761;SDS011;53672;48.176;16.338;2024-03-06T13:34:25;26.83;;;10.45;;
66761;SDS011;53672;48.176;16.338;2024-03-06T13:39:26;21.63;;;10.60;;
66761;SDS011;53672;48.176;16.338;2024-03-06T13:44:29;21.05;;;10.40;;
66761;SDS011;53672;48.176;16.338;2024-03-06T13:49:34;21.40;;;9.98;;
66761;SDS011;53672;48.176;16.338;2024-03-06T13:54:40;25.03;;;11.70;;
66761;SDS011;53672;48.176;16.338;2024-03-06T13:59:44;25.30;;;11.20;;
66761;SDS011;53672;48.176;16.338;2024-03-06T14:04:46;23.57;;;11.10;;
66761;SDS011;53672;48.176;16.338;2024-03-06T14:09:47;21.70;;;9.75;;
66761;SDS011;53672;48.176;16.338;2024-03-06T14:14:51;22.80;;;10.38;;
66761;SDS011;53672;48.176;16.338;2024-03-06T14:19:53;24.57;;;10.50;;
66761;SDS011;53672;48.176;16.338;2024-03-06T14:24:55;21.98;;;9.88;;
66761;SDS011;53672;48.176;16.338;2024-03-06T14:29:58;21.17;;;9.73;;
66761;SDS011;53672;48.176;16.338;2024-03-06T14:35:00;19.33;;;8.43;;
66761;SDS011;53672;48.176;16.338;2024-03-06T14:40:01;23.08;;;9.70;;
66761;SDS011;53672;48.176;16.338;2024-03-06T14:45:10;21.47;;;9.43;;
66761;SDS011;53672;48.176;16.338;2024-03-06T14:50:11;18.50;;;8.77;;
66761;SDS011;53672;48.176;16.338;2024-03-06T14:55:13;21.67;;;9.27;;
66761;SDS011;53672;48.176;16.338;2024-03-06T15:00:16;21.80;;;9.63;;
66761;SDS011;53672;48.176;16.338;2024-03-06T15:05:21;20.20;;;8.80;;
66761;SDS011;53672;48.176;16.338;2024-03-06T15:10:22;21.50;;;9.30;;
66761;SDS011;53672;48.176;16.338;2024-03-06T15:15:25;21.65;;;9.80;;
66761;SDS011;53672;48.176;16.338;2024-03-06T15:20:27;21.80;;;9.43;;
66761;SDS011;53672;48.176;16.338;2024-03-06T15:25:29;22.23;;;9.98;;
66761;SDS011;53672;48.176;16.338;2024-03-06T15:30:32;22.52;;;9.77;;
66761;SDS011;53672;48.176;16.338;2024-03-06T15:35:35;21.60;;;9.57;;
66761;SDS011;53672;48.176;16.338;2024-03-06T15:40:37;19.80;;;9.35;;
66761;SDS011;53672;48.176;16.338;2024-03-06T15:45:40;24.93;;;9.53;;
66761;SDS011;53672;48.176;16.338;2024-03-06T15:50:41;21.55;;;9.20;;
66761;SDS011;53672;48.176;16.338;2024-03-06T15:55:43;19.52;;;8.60;;
66761;SDS011;53672;48.176;16.338;2024-03-06T16:00:46;20.33;;;9.07;;
66761;SDS011;53672;48.176;16.338;2024-03-06T16:05:48;19.27;;;8.43;;
66761;SDS011;53672;48.176;16.338;2024-03-06T16:10:51;17.53;;;7.97;;
66761;SDS011;53672;48.176;16.338;2024-03-06T16:15:54;22.67;;;8.93;;
66761;SDS011;53672;48.176;16.338;2024-03-06T16:20:55;21.20;;;8.88;;
66761;SDS011;53672;48.176;16.338;2024-03-06T16:25:57;23.43;;;9.30;;
66761;SDS011;53672;48.176;16.338;2024-03-06T16:31:00;22.40;;;9.07;;
66761;SDS011;53672;48.176;16.338;2024-03-06T16:36:01;21.57;;;10.23;;
66761;SDS011;53672;48.176;16.338;2024-03-06T16:41:03;23.27;;;9.63;;
66761;SDS011;53672;48.176;16.338;2024-03-06T16:46:10;22.13;;;9.55;;
66761;SDS011;53672;48.176;16.338;2024-03-06T16:51:16;22.03;;;8.93;;
66761;SDS011;53672;48.176;16.338;2024-03-06T16:56:20;25.05;;;10.02;;
66761;SDS011;53672;48.176;16.338;2024-03-06T17:01:23;25.03;;;9.40;;
66761;SDS011;53672;48.176;16.338;2024-03-06T17:06:25;26.60;;;10.32;;
66761;SDS011;53672;48.176;16.338;2024-03-06T17:11:27;22.63;;;9.95;;
66761;SDS011;53672;48.176;16.338;2024-03-06T17:16:30;24.90;;;9.97;;
66761;SDS011;53672;48.176;16.338;2024-03-06T17:21:31;25.00;;;9.80;;
66761;SDS011;53672;48.176;16.338;2024-03-06T17:26:36;24.57;;;10.10;;
66761;SDS011;53672;48.176;16.338;2024-03-06T17:31:41;25.02;;;9.85;;
66761;SDS011;53672;48.176;16.338;2024-03-06T17:36:43;25.83;;;9.90;;
66761;SDS011;53672;48.176;16.338;2024-03-06T17:41:47;21.80;;;9.27;;
66761;SDS011;53672;48.176;16.338;2024-03-06T17:46:50;25.45;;;9.80;;
66761;SDS011;53672;48.176;16.338;2024-03-06T17:51:51;22.83;;;9.03;;
66761;SDS011;53672;48.176;16.338;2024-03-06T17:56:55;23.40;;;9.38;;
66761;SDS011;53672;48.176;16.338;2024-03-06T18:02:00;25.05;;;10.57;;
66761;SDS011;53672;48.176;16.338;2024-03-06T18:07:02;24.57;;;9.93;;
66761;SDS011;53672;48.176;16.338;2024-03-06T18:12:04;21.10;;;9.73;;
66761;SDS011;53672;48.176;16.338;2024-03-06T18:17:07;22.20;;;9.40;;
66761;SDS011;53672;48.176;16.338;2024-03-06T18:22:08;26.55;;;10.20;;
66761;SDS011;53672;48.176;16.338;2024-03-06T18:27:10;24.58;;;10.40;;
66761;SDS011;53672;48.176;16.338;2024-03-06T18:32:13;23.20;;;9.90;;
66761;SDS011;53672;48.176;16.338;2024-03-06T18:37:14;25.95;;;10.15;;
66761;SDS011;53672;48.176;16.338;2024-03-06T18:42:16;24.30;;;10.37;;
66761;SDS011;53672;48.176;16.338;2024-03-06T18:47:19;25.27;;;10.43;;
66761;SDS011;53672;48.176;16.338;2024-03-06T18:52:22;20.63;;;9.38;;
66761;SDS011;53672;48.176;16.338;2024-03-06T18:57:23;25.77;;;10.30;;
66761;SDS011;53672;48.176;16.338;2024-03-06T19:02:26;25.02;;;10.45;;
66761;SDS011;53672;48.176;16.338;2024-03-06T19:07:28;27.10;;;9.63;;
66761;SDS011;53672;48.176;16.338;2024-03-06T19:12:30;21.15;;;9.73;;
66761;SDS011;53672;48.176;16.338;2024-03-06T19:17:33;20.85;;;9.43;;
66761;SDS011;53672;48.176;16.338;2024-03-06T19:22:34;20.37;;;9.10;;
66761;SDS011;53672;48.176;16.338;2024-03-06T19:27:36;22.02;;;9.82;;
66761;SDS011;53672;48.176;16.338;2024-03-06T19:32:39;17.80;;;9.20;;
66761;SDS011;53672;48.176;16.338;2024-03-06T19:37:41;21.15;;;9.35;;
66761;SDS011;53672;48.176;16.338;2024-03-06T19:42:44;19.77;;;8.95;;
66761;SDS011;53672;48.176;16.338;2024-03-06T19:47:47;19.77;;;9.00;;
66761;SDS011;53672;48.176;16.338;2024-03-06T19:52:48;18.70;;;9.10;;
66761;SDS011;53672;48.176;16.338;2024-03-06T19:57:50;20.57;;;9.60;;
66761;SDS011;53672;48.176;16.338;2024-03-06T20:02:53;18.88;;;9.32;;
66761;SDS011;53672;48.176;16.338;2024-03-06T20:07:54;21.73;;;9.48;;
66761;SDS011;53672;48.176;16.338;2024-03-06T20:12:56;21.37;;;9.63;;
66761;SDS011;53672;48.176;16.338;2024-03-06T20:18:03;19.65;;;9.27;;
66761;SDS011;53672;48.176;16.338;2024-03-06T20:23:06;23.40;;;9.53;;
66761;SDS011;53672;48.176;16.338;2024-03-06T20:28:09;20.60;;;10.00;;
66761;SDS011;53672;48.176;16.338;2024-03-06T20:33:12;24.00;;;10.25;;
66761;SDS011;53672;48.176;16.338;2024-03-06T20:38:14;22.27;;;10.00;;
66761;SDS011;53672;48.176;16.338;2024-03-06T20:43:16;23.80;;;10.57;;
66761;SDS011;53672;48.176;16.338;2024-03-06T20:48:21;26.53;;;11.23;;
66761;SDS011;53672;48.176;16.338;2024-03-06T20:53:23;24.65;;;11.98;;
66761;SDS011;53672;48.176;16.338;2024-03-06T20:58:24;27.05;;;11.35;;
66761;SDS011;53672;48.176;16.338;2024-03-06T21:03:27;27.90;;;12.13;;
66761;SDS011;53672;48.176;16.338;2024-03-06T21:08:30;26.55;;;11.55;;
66761;SDS011;53672;48.176;16.338;2024-03-06T21:13:31;25.20;;;11.80;;
66761;SDS011;53672;48.176;16.338;2024-03-06T21:18:34;26.42;;;11.68;;
66761;SDS011;53672;48.176;16.338;2024-03-06T21:23:36;29.60;;;13.40;;
66761;SDS011;53672;48.176;16.338;2024-03-06T21:28:39;27.30;;;12.30;;
66761;SDS011;53672;48.176;16.338;2024-03-06T21:33:43;29.08;;;12.50;;
66761;SDS011;53672;48.176;16.338;2024-03-06T21:38:44;29.70;;;12.40;;
66761;SDS011;53672;48.176;16.338;2024-03-06T21:43:46;29.90;;;12.90;;
66761;SDS011;53672;48.176;16.338;2024-03-06T21:48:49;31.77;;;13.27;;
66761;SDS011;53672;48.176;16.338;2024-03-06T21:53:50;31.97;;;13.30;;
66761;SDS011;53672;48.176;16.338;2024-03-06T21:58:52;29.60;;;13.18;;
66761;SDS011;53672;48.176;16.338;2024-03-06T22:03:57;25.93;;;12.33;;
66761;SDS011;53672;48.176;16.338;2024-03-06T22:08:59;26.75;;;11.65;;
66761;SDS011;53672;48.176;16.338;2024-03-06T22:14:00;27.42;;;12.20;;
66761;SDS011;53672;48.176;16.338;2024-03-06T22:19:03;25.50;;;11.47;;
66761;SDS011;53672;48.176;16.338;2024-03-06T22:24:06;24.40;;;10.77;;
66761;SDS011;53672;48.176;16.338;2024-03-06T22:29:08;26.13;;;11.77;;
66761;SDS011;53672;48.176;16.338;2024-03-06T22:34:11;27.83;;;12.82;;
66761;SDS011;53672;48.176;16.338;2024-03-06T22:39:13;25.98;;;12.20;;
66761;SDS011;53672;48.176;16.338;2024-03-06T22:44:14;31.77;;;13.77;;
66761;SDS011;53672;48.176;16.338;2024-03-06T22:49:17;27.67;;;12.77;;
66761;SDS011;53672;48.176;16.338;2024-03-06T22:54:19;29.00;;;12.57;;
66761;SDS011;53672;48.176;16.338;2024-03-06T22:59:21;29.38;;;12.98;;
66761;SDS011;53672;48.176;16.338;2024-03-06T23:04:24;29.90;;;13.27;;
66761;SDS011;53672;48.176;16.338;2024-03-06T23:09:26;29.50;;;12.13;;
66761;SDS011;53672;48.176;16.338;2024-03-06T23:14:28;30.58;;;13.18;;
66761;SDS011;53672;48.176;16.338;2024-03-06T23:19:31;29.00;;;12.03;;
66761;SDS011;53672;48.176;16.338;2024-03-06T23:24:32;24.33;;;11.27;;
66761;SDS011;53672;48.176;16.338;2024-03-06T23:29:34;22.35;;;11.00;;
66761;SDS011;53672;48.176;16.338;2024-03-06T23:34:37;23.73;;;10.80;;
66761;SDS011;53672;48.176;16.338;2024-03-06T23:39:39;22.05;;;10.50;;
66761;SDS011;53672;48.176;16.338;2024-03-06T23:44:40;22.53;;;10.43;;
66761;SDS011;53672;48.176;16.338;2024-03-06T23:49:43;22.95;;;10.23;;
66761;SDS011;53672;48.176;16.338;2024-03-06T23:54:45;20.63;;;9.25;;
66761;SDS011;53672;48.176;16.338;2024-03-06T23:59:47;19.83;;;9.20;;
